createdAt,value
2023-02-17T00:08:43.585Z,-4.22
2023-02-17T00:09:47.254Z,-4.32
2023-02-17T00:10:59.941Z,-4.36
2023-02-17T00:12:05.750Z,-4.29
2023-02-17T00:13:09.822Z,-4.21
2023-02-17T00:14:14.751Z,-4.46
2023-02-17T00:15:18.456Z,-4.33
2023-02-17T00:16:32.766Z,-4.33
2023-02-17T00:17:45.178Z,-4.16
2023-02-17T00:18:57.850Z,-4.10
2023-02-17T00:20:01.788Z,-4.16
2023-02-17T00:21:18.945Z,-4.00
2023-02-17T00:22:22.562Z,-4.26
2023-02-17T00:23:25.757Z,-4.11
2023-02-17T00:24:32.734Z,-4.05
2023-02-17T00:25:42.247Z,-4.08
2023-02-17T00:26:48.395Z,-4.09
2023-02-17T00:27:55.641Z,-3.99
2023-02-17T00:29:01.077Z,-3.98
2023-02-17T00:30:06.667Z,-3.99
2023-02-17T00:31:31.153Z,-3.93
2023-02-17T00:33:08.378Z,-3.84
2023-02-17T00:34:42.884Z,-3.94
2023-02-17T00:36:55.748Z,-3.74
2023-02-17T00:38:07.891Z,-3.81
2023-02-17T00:39:15.737Z,-3.84
2023-02-17T00:40:20.911Z,-3.99
2023-02-17T00:41:29.478Z,-3.87
2023-02-17T00:42:35.552Z,-3.87
2023-02-17T00:43:40.879Z,-3.80
2023-02-17T00:44:49.980Z,-4.05
2023-02-17T00:46:00.105Z,-4.14
2023-02-17T00:47:15.619Z,-4.07
2023-02-17T00:48:19.800Z,-3.97
2023-02-17T00:49:26.664Z,-3.78
2023-02-17T00:50:33.661Z,-3.83
2023-02-17T00:51:42.073Z,-3.86
2023-02-17T00:52:45.944Z,-3.85
2023-02-17T00:53:51.418Z,-3.81
2023-02-17T00:54:57.855Z,-3.74
2023-02-17T00:56:03.208Z,-3.71
2023-02-17T00:57:06.958Z,-3.77
2023-02-17T00:58:11.890Z,-3.66
2023-02-17T00:59:16.363Z,-3.80
2023-02-17T01:00:21.056Z,-3.63
2023-02-17T02:12:02.233Z,-4.05
2023-02-17T02:13:10.832Z,-4.12
2023-02-17T02:14:37.224Z,-4.06
2023-02-17T02:15:57.180Z,-4.29
2023-02-17T02:17:12.131Z,-4.01
2023-02-17T02:18:54.851Z,-4.18
2023-02-17T02:20:12.917Z,-4.24
2023-02-17T02:21:40.540Z,-4.25
2023-02-17T02:23:21.259Z,-4.23
2023-02-17T02:26:32.088Z,-4.17
2023-02-17T02:27:46.208Z,-4.25
2023-02-17T02:29:20.645Z,-4.14
2023-02-17T02:30:29.852Z,-4.30
2023-02-17T02:32:07.095Z,-4.20
2023-02-17T02:33:49.705Z,-4.29
2023-02-17T02:35:03.545Z,-4.25
2023-02-17T02:36:30.270Z,-4.32
2023-02-17T02:37:50.789Z,-4.22
2023-02-17T02:39:18.302Z,-4.17
2023-02-17T02:40:29.459Z,-4.20
2023-02-17T02:41:46.696Z,-4.07
2023-02-17T02:43:03.949Z,-4.25
2023-02-17T02:44:12.756Z,-4.29
2023-02-17T02:45:22.520Z,-4.33
2023-02-17T02:46:26.950Z,-4.29
2023-02-17T02:47:47.076Z,-4.23
2023-02-17T02:48:54.299Z,-4.43
2023-02-17T02:50:01.501Z,-4.40
2023-02-17T02:51:16.629Z,-4.41
2023-02-17T02:54:31.715Z,-4.09
2023-02-17T02:56:01.459Z,-4.20
2023-02-17T02:57:28.955Z,-4.22
2023-02-17T03:07:55.456Z,-3.89
2023-02-17T03:09:12.498Z,-4.08
2023-02-17T03:10:19.487Z,-4.11
2023-02-17T03:11:33.464Z,-4.14
2023-02-17T03:12:40.054Z,-4.12
2023-02-17T03:13:46.694Z,-4.03
2023-02-17T03:14:55.053Z,-3.87
2023-02-17T03:16:00.799Z,-3.90
2023-02-17T03:17:05.568Z,-3.95
2023-02-17T03:18:11.718Z,-4.12
2023-02-17T03:19:24.886Z,-4.15
2023-02-17T03:20:37.059Z,-4.27
2023-02-17T03:21:55.577Z,-4.36
2023-02-17T03:23:02.670Z,-4.19
2023-02-17T03:24:10.018Z,-4.24
2023-02-17T03:25:20.398Z,-4.26
2023-02-17T03:26:27.696Z,-4.32
2023-02-17T03:27:34.398Z,-4.28
2023-02-17T03:28:41.701Z,-4.26
2023-02-17T03:29:47.931Z,-4.24
2023-02-17T03:30:52.834Z,-4.20
2023-02-17T03:31:59.910Z,-4.04
2023-02-17T03:33:05.418Z,-4.27
2023-02-17T03:34:15.003Z,-4.30
2023-02-17T03:35:19.915Z,-4.28
2023-02-17T03:36:31.290Z,-4.23
2023-02-17T03:37:43.042Z,-4.21
2023-02-17T03:42:19.451Z,-4.13
2023-02-17T03:43:28.036Z,-4.11
2023-02-17T03:44:32.823Z,-4.11
2023-02-17T03:45:38.677Z,-4.10
2023-02-17T03:46:44.878Z,-4.13
2023-02-17T03:47:51.275Z,-4.04
2023-02-17T03:48:57.613Z,-4.02
2023-02-17T03:50:05.133Z,-3.99
2023-02-17T03:51:24.765Z,-4.08
2023-02-17T03:52:36.258Z,-3.94
2023-02-17T03:53:42.188Z,-3.98
2023-02-17T03:54:47.087Z,-3.92
2023-02-17T03:55:52.750Z,-3.90
2023-02-17T03:57:02.825Z,-3.92
2023-02-17T03:58:14.707Z,-3.91
2023-02-17T03:59:20.535Z,-4.02
2023-02-17T04:00:27.228Z,-4.11
2023-02-17T04:01:31.564Z,-4.06
2023-02-17T04:02:38.676Z,-4.14
2023-02-17T04:03:44.618Z,-3.94
2023-02-17T04:04:50.639Z,-3.76
2023-02-17T04:05:55.877Z,-3.88
2023-02-17T04:06:59.536Z,-3.88
2023-02-17T04:08:07.033Z,-3.88
2023-02-17T04:09:12.717Z,-3.85
2023-02-17T04:10:16.287Z,-3.85
2023-02-17T04:11:20.840Z,-3.90
2023-02-17T04:12:30.124Z,-4.00
2023-02-17T04:13:40.711Z,-3.86
2023-02-17T04:14:44.928Z,-4.11
2023-02-17T04:15:58.130Z,-4.15
2023-02-17T04:17:03.225Z,-4.37
2023-02-17T04:18:08.689Z,-4.21
2023-02-17T04:19:49.029Z,-3.98
2023-02-17T04:20:54.714Z,-4.08
2023-02-17T04:56:33.685Z,-4.00
2023-02-17T04:59:36.770Z,-3.86
2023-02-17T05:00:59.880Z,-3.93
2023-02-17T05:02:07.287Z,-3.93
2023-02-17T05:05:11.518Z,-4.05
2023-02-17T05:06:15.524Z,-4.16
2023-02-17T05:07:49.472Z,-4.08
2023-02-17T05:09:07.803Z,-4.03
2023-02-17T05:10:56.692Z,-4.16
2023-02-17T05:12:02.064Z,-4.28
2023-02-17T05:13:22.208Z,-4.28
2023-02-17T05:14:31.719Z,-4.28
2023-02-17T05:20:52.761Z,-4.16
2023-02-17T05:22:13.324Z,-4.14
2023-02-17T05:23:20.773Z,-3.94
2023-02-17T05:24:25.929Z,-4.04
2023-02-17T05:25:35.156Z,-4.01
2023-02-17T05:26:43.138Z,-4.08
2023-02-17T05:28:15.741Z,-3.89
2023-02-17T15:13:32.342Z,-3.23
2023-02-17T15:14:36.461Z,-3.14
2023-02-17T15:15:46.074Z,-3.16
2023-02-17T15:17:01.499Z,-3.08
2023-02-17T15:18:11.846Z,-3.23
2023-02-17T15:19:20.523Z,-3.20
2023-02-17T15:20:30.974Z,-3.22
2023-02-17T16:02:50.867Z,-3.60
2023-02-17T16:03:57.042Z,-3.54
2023-02-17T16:05:06.565Z,-3.61
2023-02-17T17:22:51.637Z,-4.14
2023-02-17T17:24:01.896Z,-4.09
2023-02-17T17:25:10.848Z,-4.12
2023-02-17T17:27:01.010Z,-4.12
2023-02-17T17:43:03.149Z,-4.22
2023-02-17T17:44:21.917Z,-4.28
2023-02-17T17:45:32.526Z,-4.23
2023-02-17T17:46:39.409Z,-4.30
2023-02-17T17:49:11.214Z,-4.19
2023-02-17T17:50:27.753Z,-4.15
2023-02-17T17:51:40.171Z,-4.16
2023-02-17T17:53:05.513Z,-4.24
2023-02-17T17:55:42.080Z,-4.16
2023-02-17T17:56:54.116Z,-4.17
2023-02-17T17:58:07.580Z,-4.18
2023-02-17T17:59:21.397Z,-4.26
2023-02-17T18:00:35.353Z,-4.26
2023-02-17T18:01:43.243Z,-4.26
2023-02-17T18:02:49.125Z,-4.24
2023-02-17T18:04:00.871Z,-4.18
2023-02-17T18:05:11.796Z,-4.26
2023-02-17T18:50:58.774Z,-4.71
2023-02-17T18:52:01.547Z,-4.78
2023-02-17T18:53:05.459Z,-4.80
2023-02-17T18:54:13.040Z,-4.82
2023-02-17T18:55:19.176Z,-4.88
2023-02-17T18:56:26.778Z,-4.90
2023-02-17T18:57:29.859Z,-4.86
2023-02-17T18:58:42.464Z,-4.94
2023-02-17T18:59:51.461Z,-4.99
2023-02-17T19:00:55.225Z,-4.86
2023-02-17T19:02:09.078Z,-4.94
2023-02-17T19:05:02.317Z,-5.08
2023-02-17T19:06:13.795Z,-5.05
2023-02-17T19:07:17.076Z,-5.10
2023-02-17T19:08:24.643Z,-5.03
2023-02-17T19:09:45.268Z,-5.15
2023-02-17T19:10:50.482Z,-5.09
2023-02-17T19:11:54.699Z,-5.11
2023-02-17T19:12:59.754Z,-5.19
2023-02-17T19:14:06.836Z,-5.17
2023-02-17T19:15:13.675Z,-5.07
2023-02-17T19:16:24.599Z,-5.14
2023-02-17T19:17:27.593Z,-5.19
2023-02-17T19:18:31.531Z,-5.20
2023-02-17T19:19:40.912Z,-5.13
2023-02-17T19:20:45.993Z,-5.13
2023-02-17T19:21:56.196Z,-5.17
2023-02-17T19:23:03.730Z,-5.08
2023-02-17T19:24:10.120Z,-5.13
2023-02-17T19:25:13.857Z,-5.19
2023-02-17T19:26:19.687Z,-5.18
2023-02-17T19:27:22.952Z,-5.18
2023-02-17T19:28:27.193Z,-5.17
2023-02-17T19:29:31.770Z,-5.24
2023-02-17T19:30:35.247Z,-5.25
2023-02-17T19:31:42.018Z,-5.30
2023-02-17T19:32:46.648Z,-5.36
2023-02-17T19:33:49.811Z,-5.27
2023-02-17T19:34:53.128Z,-5.36
2023-02-17T19:35:56.801Z,-5.32
2023-02-17T19:37:05.393Z,-5.25
2023-02-17T19:38:12.367Z,-5.32
2023-02-17T19:39:22.713Z,-5.39
2023-02-17T19:40:26.649Z,-5.32
2023-02-17T19:41:30.121Z,-5.29
2023-02-17T19:42:33.982Z,-5.39
2023-02-17T19:43:40.467Z,-5.41
2023-02-17T19:44:44.310Z,-5.34
2023-02-17T19:45:51.324Z,-5.40
2023-02-17T19:46:58.950Z,-5.40
2023-02-17T19:48:10.157Z,-5.37
2023-02-17T19:49:21.588Z,-5.39
2023-02-17T19:50:24.953Z,-5.37
2023-02-17T19:51:32.104Z,-5.44
2023-02-17T19:52:39.776Z,-5.45
2023-02-17T19:53:44.177Z,-5.38
2023-02-17T19:54:51.261Z,-5.45
2023-02-17T19:55:54.649Z,-5.44
2023-02-17T19:56:57.832Z,-5.48
2023-02-17T19:58:03.807Z,-5.57
2023-02-17T19:59:10.549Z,-5.54
2023-02-17T20:00:18.942Z,-5.50
2023-02-17T20:01:33.257Z,-5.58
2023-02-17T20:02:36.929Z,-5.54
2023-02-17T20:03:42.693Z,-5.48
2023-02-17T20:04:46.034Z,-5.50
2023-02-17T20:05:49.341Z,-5.49
2023-02-17T20:06:53.660Z,-5.58
2023-02-17T20:07:57.734Z,-5.70
2023-02-17T20:09:06.316Z,-5.62
2023-02-17T20:10:12.629Z,-5.61
2023-02-17T20:11:15.313Z,-5.63
2023-02-17T20:12:21.982Z,-5.58
2023-02-17T20:13:25.888Z,-5.61
2023-02-17T20:14:29.269Z,-5.52
2023-02-17T20:15:31.331Z,-5.58
2023-02-17T20:16:36.358Z,-5.59
2023-02-17T20:17:41.598Z,-5.56
2023-02-17T20:18:50.746Z,-5.63
2023-02-17T20:19:53.663Z,-5.63
2023-02-17T20:20:58.932Z,-5.68
2023-02-17T20:22:01.242Z,-5.67
2023-02-17T20:23:08.018Z,-5.63
2023-02-17T20:24:09.931Z,-5.68
2023-02-17T20:25:12.150Z,-5.68
2023-02-17T20:26:21.778Z,-5.65
2023-02-17T20:27:23.922Z,-5.70
2023-02-17T20:28:28.586Z,-5.63
2023-02-17T20:29:30.683Z,-5.66
2023-02-17T20:30:32.760Z,-5.69
2023-02-17T20:31:36.999Z,-5.73
2023-02-17T20:32:39.695Z,-5.62
2023-02-17T20:33:42.244Z,-5.66
2023-02-17T20:34:45.783Z,-5.69
2023-02-17T20:35:47.934Z,-5.72
2023-02-17T20:36:49.961Z,-5.68
2023-02-17T20:37:52.249Z,-5.68
2023-02-17T20:38:54.376Z,-5.66
2023-02-17T20:39:56.415Z,-5.67
2023-02-17T20:41:00.399Z,-5.68
2023-02-17T20:42:03.261Z,-5.67
2023-02-17T20:43:06.477Z,-5.68
2023-02-17T20:44:11.468Z,-5.73
2023-02-17T20:45:13.557Z,-5.73
2023-02-17T20:46:27.165Z,-5.74
2023-02-17T20:47:29.424Z,-5.74
2023-02-17T20:48:31.708Z,-5.79
2023-02-17T20:49:33.686Z,-5.70
2023-02-17T20:50:36.967Z,-5.78
2023-02-17T20:51:38.922Z,-5.76
2023-02-17T20:52:40.871Z,-5.78
2023-02-17T20:53:42.920Z,-5.78
2023-02-17T20:54:46.348Z,-5.71
2023-02-17T20:55:48.537Z,-5.72
2023-02-17T20:56:51.859Z,-5.73
2023-02-17T20:57:54.368Z,-5.84
2023-02-17T20:58:56.457Z,-5.75
2023-02-17T20:59:58.460Z,-5.73
2023-02-17T21:01:00.487Z,-5.86
2023-02-17T21:02:02.527Z,-5.86
2023-02-17T21:03:05.099Z,-5.88
2023-02-17T21:04:08.171Z,-5.92
2023-02-17T21:05:11.009Z,-5.96
2023-02-17T21:06:31.438Z,-5.99
2023-02-17T21:07:33.413Z,-5.97
2023-02-17T21:08:35.382Z,-5.94
2023-02-17T21:09:37.417Z,-5.99
2023-02-17T21:10:40.868Z,-6.00
2023-02-17T21:11:43.741Z,-6.04
2023-02-17T21:12:46.303Z,-6.03
2023-02-17T21:13:48.992Z,-5.96
2023-02-17T21:14:50.942Z,-6.02
2023-02-17T21:15:52.969Z,-6.06
2023-02-17T21:16:54.959Z,-6.01
2023-02-17T21:17:56.840Z,-5.95
2023-02-17T21:19:01.312Z,-5.99
2023-02-17T21:20:04.508Z,-6.00
2023-02-17T21:21:06.980Z,-5.98
2023-02-17T21:22:08.883Z,-5.99
2023-02-17T21:23:10.834Z,-6.03
2023-02-17T21:24:12.747Z,-6.05
2023-02-17T21:25:14.769Z,-6.05
2023-02-17T21:26:17.253Z,-6.01
2023-02-17T21:27:19.564Z,-6.08
2023-02-17T21:28:21.617Z,-6.12
2023-02-17T21:29:23.667Z,-6.17
2023-02-17T21:30:25.732Z,-6.13
2023-02-17T21:31:29.143Z,-6.17
2023-02-17T21:32:31.930Z,-6.23
2023-02-17T21:33:34.117Z,-6.18
2023-02-17T21:34:38.559Z,-6.20
2023-02-17T21:35:40.627Z,-6.21
2023-02-17T21:36:42.977Z,-6.33
2023-02-17T21:37:45.366Z,-6.32
2023-02-17T21:38:47.962Z,-6.28
2023-02-17T21:39:50.054Z,-6.41
2023-02-17T21:40:52.020Z,-6.36
2023-02-17T21:41:55.595Z,-6.34
2023-02-17T21:43:16.298Z,-6.39
2023-02-17T21:44:36.743Z,-6.32
2023-02-17T21:45:39.478Z,-6.55
2023-02-17T21:46:43.376Z,-6.48
2023-02-17T21:47:46.061Z,-6.51
2023-02-17T21:48:48.755Z,-6.50
2023-02-17T21:49:54.596Z,-6.59
2023-02-17T21:51:07.036Z,-6.63
2023-02-17T21:52:09.073Z,-6.63
2023-02-17T21:53:10.944Z,-6.63
2023-02-17T21:54:12.994Z,-6.60
2023-02-17T21:55:14.965Z,-6.79
2023-02-17T21:56:17.124Z,-6.66
2023-02-17T21:57:19.744Z,-6.67
2023-02-17T21:58:21.842Z,-6.69
2023-02-17T21:59:26.084Z,-6.68
2023-02-17T22:00:28.479Z,-6.72
2023-02-17T22:01:31.266Z,-6.70
2023-02-17T22:02:34.879Z,-6.68
2023-02-17T22:03:36.775Z,-6.65
2023-02-17T22:04:38.964Z,-6.59
2023-02-17T22:05:40.981Z,-6.57
2023-02-17T22:06:43.134Z,-6.61
2023-02-17T22:07:48.981Z,-6.57
2023-02-17T22:08:51.749Z,-6.63
2023-02-17T22:09:53.677Z,-6.56
2023-02-17T22:10:55.612Z,-6.46
2023-02-17T22:11:57.692Z,-6.64
2023-02-17T22:12:59.736Z,-6.67
2023-02-17T22:14:05.119Z,-6.72
2023-02-17T22:15:10.637Z,-6.71
2023-02-17T22:16:13.237Z,-6.72
2023-02-17T22:17:17.651Z,-6.76
2023-02-17T22:18:19.631Z,-6.80
2023-02-17T22:19:24.288Z,-6.71
2023-02-17T22:20:27.269Z,-6.72
2023-02-17T22:21:29.341Z,-6.73
2023-02-17T22:22:31.260Z,-6.78
2023-02-17T22:23:33.379Z,-6.77
2023-02-17T22:24:35.384Z,-6.84
2023-02-17T22:25:43.732Z,-6.76
2023-02-17T22:26:45.916Z,-6.82
2023-02-17T22:27:48.089Z,-6.95
2023-02-17T22:28:50.941Z,-6.96
2023-02-17T22:29:52.952Z,-6.89
2023-02-17T22:30:54.865Z,-6.89
2023-02-17T22:31:57.522Z,-6.84
2023-02-17T22:32:59.626Z,-6.86
2023-02-17T22:34:05.175Z,-7.02
2023-02-17T22:35:07.161Z,-6.96
2023-02-17T22:36:13.102Z,-6.90
2023-02-17T22:37:15.100Z,-7.04
2023-02-17T22:38:17.514Z,-7.00
2023-02-17T22:39:19.558Z,-6.99
2023-02-17T22:40:21.555Z,-7.04
2023-02-17T22:41:25.844Z,-6.96
2023-02-17T22:42:28.324Z,-6.99
2023-02-17T22:43:30.740Z,-7.02
2023-02-17T22:44:32.791Z,-6.93
2023-02-17T22:45:34.773Z,-6.98
2023-02-17T22:46:36.846Z,-7.00
2023-02-17T22:47:38.776Z,-6.97
2023-02-17T22:48:40.736Z,-7.09
2023-02-17T22:49:43.100Z,-7.05
2023-02-17T22:50:45.052Z,-7.06
2023-02-17T22:51:47.001Z,-7.13
2023-02-17T22:52:48.927Z,-7.10
2023-02-17T22:53:51.031Z,-7.12
2023-02-17T22:54:53.023Z,-7.11
2023-02-17T22:55:56.295Z,-7.07
2023-02-17T22:56:58.769Z,-7.13
2023-02-17T22:58:01.034Z,-7.09
2023-02-17T22:59:05.951Z,-7.10
2023-02-17T23:00:08.281Z,-7.19
2023-02-17T23:01:16.025Z,-7.22
2023-02-17T23:02:17.964Z,-7.24
2023-02-17T23:03:20.974Z,-7.32
2023-02-17T23:04:22.979Z,-7.30
2023-02-17T23:05:24.990Z,-7.27
2023-02-17T23:06:30.189Z,-7.29
2023-02-17T23:07:32.128Z,-7.25
2023-02-17T23:08:34.810Z,-7.26
2023-02-17T23:09:36.890Z,-7.37
2023-02-17T23:10:43.593Z,-7.31
2023-02-17T23:11:53.948Z,-7.30
2023-02-17T23:12:56.119Z,-7.29
2023-02-17T23:13:58.100Z,-7.34
2023-02-17T23:15:01.236Z,-7.39
2023-02-17T23:16:04.286Z,-7.35
2023-02-17T23:17:09.749Z,-7.43
2023-02-17T23:18:15.327Z,-7.42
2023-02-17T23:19:19.626Z,-7.32
2023-02-17T23:20:21.659Z,-7.37
2023-02-17T23:21:23.556Z,-7.40
2023-02-17T23:22:25.548Z,-7.45
2023-02-17T23:23:27.531Z,-7.44
2023-02-17T23:24:29.798Z,-7.40
2023-02-17T23:25:31.989Z,-7.33
2023-02-17T23:26:34.101Z,-7.41
2023-02-17T23:27:35.995Z,-7.34
2023-02-17T23:28:37.939Z,-7.50
2023-02-17T23:29:41.486Z,-7.48
2023-02-17T23:30:43.870Z,-7.42
2023-02-17T23:31:46.092Z,-7.54
2023-02-17T23:32:48.703Z,-7.49
2023-02-17T23:33:50.801Z,-7.49
2023-02-17T23:34:52.705Z,-7.46
2023-02-17T23:35:54.630Z,-7.48
2023-02-17T23:36:56.951Z,-7.46
2023-02-17T23:37:59.410Z,-7.49
2023-02-17T23:39:01.385Z,-7.58
2023-02-17T23:40:04.827Z,-7.52
2023-02-17T23:41:06.754Z,-7.49
2023-02-17T23:42:08.766Z,-7.50
2023-02-17T23:43:11.040Z,-7.49
2023-02-17T23:44:15.663Z,-7.51
2023-02-17T23:45:17.798Z,-7.57
2023-02-17T23:46:20.844Z,-7.64
2023-02-17T23:47:23.187Z,-7.65
2023-02-17T23:48:25.098Z,-7.66
2023-02-17T23:49:27.046Z,-7.72
2023-02-17T23:50:28.897Z,-7.60
2023-02-17T23:51:30.895Z,-7.58
2023-02-17T23:52:34.826Z,-7.53
2023-02-17T23:53:36.829Z,-7.64
2023-02-17T23:54:38.809Z,-7.50
2023-02-17T23:55:40.724Z,-7.69
2023-02-17T23:56:42.842Z,-7.62
2023-02-17T23:57:45.111Z,-7.71
2023-02-17T23:58:46.965Z,-7.79
2023-02-17T23:59:49.139Z,-7.73
